KDHT/DHT METAR and TAF weather

Enter ICAO airport designator
Station Type Date Time Source
KDHT METAR 2018/01/23 00:53 UTC NOAA

KDHT 230053Z AUTO 11003KT 10SM CLR 03/M18 A3011 RMK AO2 SLP209 T00281183


Station Type Date Time Source
KDHT Decoded METAR 2018/01/23 00:53 UTC NOAA

DALHART MUNICIPAL AIRPORT, TX, United States (KDHT) 36-01N 102-33W 1217M
Jan 22, 2018 - 07:53 PM EST / 2018.01.23 0053 UTC
Wind: from the ESE (110 degrees) at 3 MPH (3 KT):0
Visibility: 10 mile(s):0
Sky conditions: clear
Temperature: 37.0 F (2.8 C)
Dew Point: -0.9 F (-18.3 C)
Relative Humidity: 19%
Pressure (altimeter): 30.11 in. Hg (1019 hPa)
ob: KDHT 230053Z AUTO 11003KT 10SM CLR 03/M18 A3011 RMK AO2 SLP209 T00281183
cycle: 1

Station Type Date Time Source
KDHT TAF 2018/01/22 18:33 UTC NOAA

TAF KDHT 221731Z 2218/2318 32017G24KT P6SM SKC
FM230000 35008KT P6SM FEW250
FM231500 04008KT P6SM FEW250


Example: see airport list